sensor_id;sensor_type;location;lat;lon;timestamp;temperature;humidity
21830;DHT22;11077;50.264;6.798;2022-07-23T00:01:33;17.00;99.90
21830;DHT22;11077;50.264;6.798;2022-07-23T00:04:02;17.00;99.90
21830;DHT22;11077;50.264;6.798;2022-07-23T00:06:29;17.10;99.90
21830;DHT22;11077;50.264;6.798;2022-07-23T00:08:56;17.00;99.90
21830;DHT22;11077;50.264;6.798;2022-07-23T00:11:23;17.00;99.90
21830;DHT22;11077;50.264;6.798;2022-07-23T00:13:51;17.00;99.90
21830;DHT22;11077;50.264;6.798;2022-07-23T00:16:20;17.00;99.90
21830;DHT22;11077;50.264;6.798;2022-07-23T00:18:47;17.00;99.90
21830;DHT22;11077;50.264;6.798;2022-07-23T00:21:16;17.00;99.90
21830;DHT22;11077;50.264;6.798;2022-07-23T00:23:43;17.00;99.90
21830;DHT22;11077;50.264;6.798;2022-07-23T00:26:11;17.00;99.90
21830;DHT22;11077;50.264;6.798;2022-07-23T00:28:38;17.00;99.90
21830;DHT22;11077;50.264;6.798;2022-07-23T00:31:05;16.90;99.90
21830;DHT22;11077;50.264;6.798;2022-07-23T00:33:32;16.90;99.90
21830;DHT22;11077;50.264;6.798;2022-07-23T00:36:00;16.90;99.90
21830;DHT22;11077;50.264;6.798;2022-07-23T00:38:28;16.90;99.90
21830;DHT22;11077;50.264;6.798;2022-07-23T00:40:56;16.90;99.90
21830;DHT22;11077;50.264;6.798;2022-07-23T00:43:23;16.90;99.90
21830;DHT22;11077;50.264;6.798;2022-07-23T00:45:51;16.80;99.90
21830;DHT22;11077;50.264;6.798;2022-07-23T00:48:18;16.90;99.90
21830;DHT22;11077;50.264;6.798;2022-07-23T00:50:45;16.80;99.90
21830;DHT22;11077;50.264;6.798;2022-07-23T00:53:13;16.80;99.90
21830;DHT22;11077;50.264;6.798;2022-07-23T00:55:41;16.80;99.90
21830;DHT22;11077;50.264;6.798;2022-07-23T00:58:09;16.80;99.90
21830;DHT22;11077;50.264;6.798;2022-07-23T01:00:36;16.70;99.90
21830;DHT22;11077;50.264;6.798;2022-07-23T01:03:03;16.70;99.90
21830;DHT22;11077;50.264;6.798;2022-07-23T01:05:31;16.70;99.90
21830;DHT22;11077;50.264;6.798;2022-07-23T01:07:58;16.70;99.90
21830;DHT22;11077;50.264;6.798;2022-07-23T01:10:26;16.60;99.90
21830;DHT22;11077;50.264;6.798;2022-07-23T01:13:03;16.60;99.90
21830;DHT22;11077;50.264;6.798;2022-07-23T01:15:31;16.60;99.90
21830;DHT22;11077;50.264;6.798;2022-07-23T01:17:59;16.60;99.90
21830;DHT22;11077;50.264;6.798;2022-07-23T01:20:27;16.60;99.90
21830;DHT22;11077;50.264;6.798;2022-07-23T01:22:56;16.60;99.90
21830;DHT22;11077;50.264;6.798;2022-07-23T01:25:24;16.60;99.90
21830;DHT22;11077;50.264;6.798;2022-07-23T01:27:56;16.60;99.90
21830;DHT22;11077;50.264;6.798;2022-07-23T01:30:23;16.60;99.90
21830;DHT22;11077;50.264;6.798;2022-07-23T01:32:51;16.50;99.90
21830;DHT22;11077;50.264;6.798;2022-07-23T01:35:18;16.50;99.90
21830;DHT22;11077;50.264;6.798;2022-07-23T01:37:46;16.50;99.90
21830;DHT22;11077;50.264;6.798;2022-07-23T01:40:16;16.40;99.90
21830;DHT22;11077;50.264;6.798;2022-07-23T01:42:44;16.40;99.90
21830;DHT22;11077;50.264;6.798;2022-07-23T01:45:13;16.40;99.90
21830;DHT22;11077;50.264;6.798;2022-07-23T01:47:45;16.40;99.90
21830;DHT22;11077;50.264;6.798;2022-07-23T01:50:13;16.30;99.90
21830;DHT22;11077;50.264;6.798;2022-07-23T01:52:48;16.30;99.90
21830;DHT22;11077;50.264;6.798;2022-07-23T01:55:17;16.30;99.90
21830;DHT22;11077;50.264;6.798;2022-07-23T01:57:44;16.20;99.90
21830;DHT22;11077;50.264;6.798;2022-07-23T02:00:13;16.10;99.90
21830;DHT22;11077;50.264;6.798;2022-07-23T02:02:42;16.10;99.90
21830;DHT22;11077;50.264;6.798;2022-07-23T02:05:09;16.00;99.90
21830;DHT22;11077;50.264;6.798;2022-07-23T02:07:37;16.00;99.90
21830;DHT22;11077;50.264;6.798;2022-07-23T02:10:05;15.90;99.90
21830;DHT22;11077;50.264;6.798;2022-07-23T02:12:34;15.90;99.90
21830;DHT22;11077;50.264;6.798;2022-07-23T02:15:01;15.90;99.90
21830;DHT22;11077;50.264;6.798;2022-07-23T02:17:29;15.80;99.90
21830;DHT22;11077;50.264;6.798;2022-07-23T02:19:56;15.80;99.90
21830;DHT22;11077;50.264;6.798;2022-07-23T02:22:23;15.80;99.90
21830;DHT22;11077;50.264;6.798;2022-07-23T02:24:50;15.70;99.90
21830;DHT22;11077;50.264;6.798;2022-07-23T02:27:18;15.50;99.90
21830;DHT22;11077;50.264;6.798;2022-07-23T02:29:47;15.60;99.90
21830;DHT22;11077;50.264;6.798;2022-07-23T02:32:14;15.60;99.90
21830;DHT22;11077;50.264;6.798;2022-07-23T02:34:43;15.70;99.90
21830;DHT22;11077;50.264;6.798;2022-07-23T02:37:11;15.60;99.90
21830;DHT22;11077;50.264;6.798;2022-07-23T02:39:38;15.60;99.90
21830;DHT22;11077;50.264;6.798;2022-07-23T02:42:06;15.60;99.90
21830;DHT22;11077;50.264;6.798;2022-07-23T02:44:34;15.50;99.90
21830;DHT22;11077;50.264;6.798;2022-07-23T02:47:03;15.50;99.90
21830;DHT22;11077;50.264;6.798;2022-07-23T02:49:32;15.50;99.90
21830;DHT22;11077;50.264;6.798;2022-07-23T02:52:03;15.40;99.90
21830;DHT22;11077;50.264;6.798;2022-07-23T02:54:31;15.40;99.90
21830;DHT22;11077;50.264;6.798;2022-07-23T02:56:58;15.40;99.90
21830;DHT22;11077;50.264;6.798;2022-07-23T02:59:26;15.30;99.90
21830;DHT22;11077;50.264;6.798;2022-07-23T03:01:53;15.30;99.90
21830;DHT22;11077;50.264;6.798;2022-07-23T03:04:22;15.30;99.90
21830;DHT22;11077;50.264;6.798;2022-07-23T03:06:50;15.30;99.90
21830;DHT22;11077;50.264;6.798;2022-07-23T03:09:18;15.30;99.90
21830;DHT22;11077;50.264;6.798;2022-07-23T03:11:45;15.20;99.90
21830;DHT22;11077;50.264;6.798;2022-07-23T03:14:12;15.20;99.90
21830;DHT22;11077;50.264;6.798;2022-07-23T03:16:42;15.20;99.90
21830;DHT22;11077;50.264;6.798;2022-07-23T03:19:09;15.20;99.90
21830;DHT22;11077;50.264;6.798;2022-07-23T03:21:39;15.20;99.90
21830;DHT22;11077;50.264;6.798;2022-07-23T03:24:07;15.20;99.90
21830;DHT22;11077;50.264;6.798;2022-07-23T03:26:36;15.20;99.90
21830;DHT22;11077;50.264;6.798;2022-07-23T03:29:04;15.20;99.90
21830;DHT22;11077;50.264;6.798;2022-07-23T03:31:31;15.20;99.90
21830;DHT22;11077;50.264;6.798;2022-07-23T03:33:59;15.20;99.90
21830;DHT22;11077;50.264;6.798;2022-07-23T03:36:27;15.20;99.90
21830;DHT22;11077;50.264;6.798;2022-07-23T03:38:57;15.20;99.90
21830;DHT22;11077;50.264;6.798;2022-07-23T03:41:25;15.20;99.90
21830;DHT22;11077;50.264;6.798;2022-07-23T03:43:52;15.10;99.90
21830;DHT22;11077;50.264;6.798;2022-07-23T03:46:19;15.10;99.90
21830;DHT22;11077;50.264;6.798;2022-07-23T03:48:47;15.00;99.90
21830;DHT22;11077;50.264;6.798;2022-07-23T03:51:14;15.00;99.90
21830;DHT22;11077;50.264;6.798;2022-07-23T03:53:41;15.00;99.90
21830;DHT22;11077;50.264;6.798;2022-07-23T03:56:10;15.00;99.90
21830;DHT22;11077;50.264;6.798;2022-07-23T03:58:37;15.00;99.90
21830;DHT22;11077;50.264;6.798;2022-07-23T04:01:05;14.90;99.90
21830;DHT22;11077;50.264;6.798;2022-07-23T04:03:32;14.80;99.90
21830;DHT22;11077;50.264;6.798;2022-07-23T04:06:00;14.80;99.90
21830;DHT22;11077;50.264;6.798;2022-07-23T04:08:30;14.80;99.90
21830;DHT22;11077;50.264;6.798;2022-07-23T04:10:59;14.70;99.90
21830;DHT22;11077;50.264;6.798;2022-07-23T04:13:28;14.80;99.90
21830;DHT22;11077;50.264;6.798;2022-07-23T04:15:56;14.70;99.90
21830;DHT22;11077;50.264;6.798;2022-07-23T04:18:24;14.80;99.90
21830;DHT22;11077;50.264;6.798;2022-07-23T04:20:57;14.80;99.90
21830;DHT22;11077;50.264;6.798;2022-07-23T04:23:25;14.80;99.90
21830;DHT22;11077;50.264;6.798;2022-07-23T04:25:53;14.90;99.90
21830;DHT22;11077;50.264;6.798;2022-07-23T04:28:20;14.90;99.90
21830;DHT22;11077;50.264;6.798;2022-07-23T04:30:49;15.00;99.90
21830;DHT22;11077;50.264;6.798;2022-07-23T04:33:17;15.00;99.90
21830;DHT22;11077;50.264;6.798;2022-07-23T04:35:48;15.00;99.90
21830;DHT22;11077;50.264;6.798;2022-07-23T04:38:20;15.10;99.90
21830;DHT22;11077;50.264;6.798;2022-07-23T04:40:49;15.10;99.90
21830;DHT22;11077;50.264;6.798;2022-07-23T04:43:17;15.10;99.90
21830;DHT22;11077;50.264;6.798;2022-07-23T04:45:48;15.00;99.90
21830;DHT22;11077;50.264;6.798;2022-07-23T04:48:15;15.00;99.90
21830;DHT22;11077;50.264;6.798;2022-07-23T04:50:43;15.10;99.90
21830;DHT22;11077;50.264;6.798;2022-07-23T04:53:22;15.00;99.90
21830;DHT22;11077;50.264;6.798;2022-07-23T04:55:52;15.00;99.90
21830;DHT22;11077;50.264;6.798;2022-07-23T04:58:21;15.00;99.90
21830;DHT22;11077;50.264;6.798;2022-07-23T05:00:50;15.10;99.90
21830;DHT22;11077;50.264;6.798;2022-07-23T05:03:18;15.20;99.90
21830;DHT22;11077;50.264;6.798;2022-07-23T05:05:47;15.20;99.90
21830;DHT22;11077;50.264;6.798;2022-07-23T05:08:17;15.10;99.90
21830;DHT22;11077;50.264;6.798;2022-07-23T05:10:49;15.20;99.90
21830;DHT22;11077;50.264;6.798;2022-07-23T05:13:18;15.20;99.90
21830;DHT22;11077;50.264;6.798;2022-07-23T05:15:46;15.30;99.90
21830;DHT22;11077;50.264;6.798;2022-07-23T05:18:15;15.30;99.90
21830;DHT22;11077;50.264;6.798;2022-07-23T05:20:44;15.30;99.90
21830;DHT22;11077;50.264;6.798;2022-07-23T05:23:15;15.30;99.90
21830;DHT22;11077;50.264;6.798;2022-07-23T05:25:42;15.40;99.90
21830;DHT22;11077;50.264;6.798;2022-07-23T05:28:11;15.30;99.90
21830;DHT22;11077;50.264;6.798;2022-07-23T05:30:38;15.30;99.90
21830;DHT22;11077;50.264;6.798;2022-07-23T05:33:12;15.40;99.90
21830;DHT22;11077;50.264;6.798;2022-07-23T05:35:42;15.40;99.90
21830;DHT22;11077;50.264;6.798;2022-07-23T05:38:25;15.40;99.90
21830;DHT22;11077;50.264;6.798;2022-07-23T05:40:55;15.40;99.90
21830;DHT22;11077;50.264;6.798;2022-07-23T05:43:22;15.40;99.90
21830;DHT22;11077;50.264;6.798;2022-07-23T05:45:51;15.40;99.90
21830;DHT22;11077;50.264;6.798;2022-07-23T05:51:45;15.50;99.90
21830;DHT22;11077;50.264;6.798;2022-07-23T05:54:15;15.50;99.90
21830;DHT22;11077;50.264;6.798;2022-07-23T05:56:42;15.60;99.90
21830;DHT22;11077;50.264;6.798;2022-07-23T05:59:11;15.60;99.90
21830;DHT22;11077;50.264;6.798;2022-07-23T06:01:40;15.60;99.90
21830;DHT22;11077;50.264;6.798;2022-07-23T06:04:10;15.70;99.90
21830;DHT22;11077;50.264;6.798;2022-07-23T06:06:42;15.70;99.90
21830;DHT22;11077;50.264;6.798;2022-07-23T06:09:12;15.80;99.90
21830;DHT22;11077;50.264;6.798;2022-07-23T06:11:40;15.80;99.90
21830;DHT22;11077;50.264;6.798;2022-07-23T06:14:08;15.80;99.90
21830;DHT22;11077;50.264;6.798;2022-07-23T06:16:46;15.80;99.90
21830;DHT22;11077;50.264;6.798;2022-07-23T06:19:13;15.80;99.90
21830;DHT22;11077;50.264;6.798;2022-07-23T06:21:41;15.70;99.90
21830;DHT22;11077;50.264;6.798;2022-07-23T06:24:08;15.80;99.90
21830;DHT22;11077;50.264;6.798;2022-07-23T06:26:37;15.80;99.90
21830;DHT22;11077;50.264;6.798;2022-07-23T06:29:04;15.80;99.90
21830;DHT22;11077;50.264;6.798;2022-07-23T06:31:32;15.90;99.90
21830;DHT22;11077;50.264;6.798;2022-07-23T06:33:59;16.00;99.90
21830;DHT22;11077;50.264;6.798;2022-07-23T06:36:27;16.00;99.90
21830;DHT22;11077;50.264;6.798;2022-07-23T06:38:54;16.10;99.90
21830;DHT22;11077;50.264;6.798;2022-07-23T06:41:21;16.10;99.90
21830;DHT22;11077;50.264;6.798;2022-07-23T06:43:50;16.10;99.90
21830;DHT22;11077;50.264;6.798;2022-07-23T06:46:18;16.20;99.90
21830;DHT22;11077;50.264;6.798;2022-07-23T06:48:48;16.20;99.90
21830;DHT22;11077;50.264;6.798;2022-07-23T06:51:16;16.20;99.90
21830;DHT22;11077;50.264;6.798;2022-07-23T06:53:43;16.30;99.90
21830;DHT22;11077;50.264;6.798;2022-07-23T06:56:10;16.40;99.90
21830;DHT22;11077;50.264;6.798;2022-07-23T06:58:39;16.50;99.90
21830;DHT22;11077;50.264;6.798;2022-07-23T07:01:10;16.60;99.90
21830;DHT22;11077;50.264;6.798;2022-07-23T07:03:37;16.70;99.90
21830;DHT22;11077;50.264;6.798;2022-07-23T07:06:04;16.80;99.90
21830;DHT22;11077;50.264;6.798;2022-07-23T07:08:32;16.80;99.90
21830;DHT22;11077;50.264;6.798;2022-07-23T07:10:59;16.90;99.90
21830;DHT22;11077;50.264;6.798;2022-07-23T07:13:27;17.00;99.90
21830;DHT22;11077;50.264;6.798;2022-07-23T07:15:55;17.10;99.90
21830;DHT22;11077;50.264;6.798;2022-07-23T07:18:29;17.20;99.90
21830;DHT22;11077;50.264;6.798;2022-07-23T07:20:57;17.30;99.90
21830;DHT22;11077;50.264;6.798;2022-07-23T07:23:25;17.30;99.90
21830;DHT22;11077;50.264;6.798;2022-07-23T07:25:52;17.30;99.90
21830;DHT22;11077;50.264;6.798;2022-07-23T07:28:19;17.20;99.90
21830;DHT22;11077;50.264;6.798;2022-07-23T07:30:47;17.20;99.90
21830;DHT22;11077;50.264;6.798;2022-07-23T07:33:14;17.20;99.90
21830;DHT22;11077;50.264;6.798;2022-07-23T07:35:43;17.40;99.90
21830;DHT22;11077;50.264;6.798;2022-07-23T07:38:10;17.40;99.90
21830;DHT22;11077;50.264;6.798;2022-07-23T07:40:38;17.50;99.90
21830;DHT22;11077;50.264;6.798;2022-07-23T07:43:05;17.70;99.90
21830;DHT22;11077;50.264;6.798;2022-07-23T07:45:33;17.90;99.90
21830;DHT22;11077;50.264;6.798;2022-07-23T07:48:00;18.10;99.90
21830;DHT22;11077;50.264;6.798;2022-07-23T07:50:28;18.30;99.90
21830;DHT22;11077;50.264;6.798;2022-07-23T07:52:56;18.50;99.90
21830;DHT22;11077;50.264;6.798;2022-07-23T07:55:24;18.60;99.90
21830;DHT22;11077;50.264;6.798;2022-07-23T07:57:51;18.80;99.90
21830;DHT22;11077;50.264;6.798;2022-07-23T08:00:18;19.00;99.90
21830;DHT22;11077;50.264;6.798;2022-07-23T08:02:48;19.20;99.90
21830;DHT22;11077;50.264;6.798;2022-07-23T08:05:19;19.30;99.90
21830;DHT22;11077;50.264;6.798;2022-07-23T08:07:47;19.50;99.90
21830;DHT22;11077;50.264;6.798;2022-07-23T08:10:17;19.70;99.90
21830;DHT22;11077;50.264;6.798;2022-07-23T08:12:45;19.80;99.90
21830;DHT22;11077;50.264;6.798;2022-07-23T08:15:14;20.00;99.90
21830;DHT22;11077;50.264;6.798;2022-07-23T08:17:42;20.10;99.90
21830;DHT22;11077;50.264;6.798;2022-07-23T08:20:13;20.30;99.90
21830;DHT22;11077;50.264;6.798;2022-07-23T08:22:49;20.40;99.90
21830;DHT22;11077;50.264;6.798;2022-07-23T08:25:20;20.60;99.90
21830;DHT22;11077;50.264;6.798;2022-07-23T08:27:48;20.80;99.90
21830;DHT22;11077;50.264;6.798;2022-07-23T08:30:16;20.90;99.90
21830;DHT22;11077;50.264;6.798;2022-07-23T08:32:55;21.00;99.90
21830;DHT22;11077;50.264;6.798;2022-07-23T08:35:29;21.20;99.90
21830;DHT22;11077;50.264;6.798;2022-07-23T08:37:58;21.30;99.90
21830;DHT22;11077;50.264;6.798;2022-07-23T08:40:29;21.40;99.90
21830;DHT22;11077;50.264;6.798;2022-07-23T08:42:57;21.60;99.90
21830;DHT22;11077;50.264;6.798;2022-07-23T08:45:26;21.70;99.90
21830;DHT22;11077;50.264;6.798;2022-07-23T08:47:55;21.80;99.90
21830;DHT22;11077;50.264;6.798;2022-07-23T08:50:25;22.00;99.90
21830;DHT22;11077;50.264;6.798;2022-07-23T08:52:53;22.10;99.90
21830;DHT22;11077;50.264;6.798;2022-07-23T08:55:23;22.20;99.90
21830;DHT22;11077;50.264;6.798;2022-07-23T08:57:53;22.40;99.90
21830;DHT22;11077;50.264;6.798;2022-07-23T09:00:21;22.40;99.90
21830;DHT22;11077;50.264;6.798;2022-07-23T09:02:49;22.60;99.90
21830;DHT22;11077;50.264;6.798;2022-07-23T09:05:17;22.80;99.90
21830;DHT22;11077;50.264;6.798;2022-07-23T09:08:04;22.90;99.90
21830;DHT22;11077;50.264;6.798;2022-07-23T09:10:46;23.00;99.90
21830;DHT22;11077;50.264;6.798;2022-07-23T09:13:30;23.10;99.90
21830;DHT22;11077;50.264;6.798;2022-07-23T09:16:00;23.30;99.90
21830;DHT22;11077;50.264;6.798;2022-07-23T09:18:36;23.50;99.90
21830;DHT22;11077;50.264;6.798;2022-07-23T09:21:18;23.50;99.90
21830;DHT22;11077;50.264;6.798;2022-07-23T09:23:49;23.70;99.90
21830;DHT22;11077;50.264;6.798;2022-07-23T09:26:19;23.80;99.90
21830;DHT22;11077;50.264;6.798;2022-07-23T09:28:54;23.80;99.90
21830;DHT22;11077;50.264;6.798;2022-07-23T09:31:22;23.70;99.90
21830;DHT22;11077;50.264;6.798;2022-07-23T09:33:49;23.90;99.90
21830;DHT22;11077;50.264;6.798;2022-07-23T09:36:27;24.00;99.90
21830;DHT22;11077;50.264;6.798;2022-07-23T09:38:55;23.90;99.90
21830;DHT22;11077;50.264;6.798;2022-07-23T09:41:23;24.00;99.90
21830;DHT22;11077;50.264;6.798;2022-07-23T09:43:56;24.20;99.90
21830;DHT22;11077;50.264;6.798;2022-07-23T09:46:25;24.40;99.90
21830;DHT22;11077;50.264;6.798;2022-07-23T09:48:53;24.60;99.90
21830;DHT22;11077;50.264;6.798;2022-07-23T09:51:22;24.80;99.90
21830;DHT22;11077;50.264;6.798;2022-07-23T09:53:54;24.90;99.90
21830;DHT22;11077;50.264;6.798;2022-07-23T09:56:21;24.90;99.90
21830;DHT22;11077;50.264;6.798;2022-07-23T09:58:50;25.00;99.90
21830;DHT22;11077;50.264;6.798;2022-07-23T10:03:31;25.30;99.30
21830;DHT22;11077;50.264;6.798;2022-07-23T10:06:19;25.50;99.20
21830;DHT22;11077;50.264;6.798;2022-07-23T10:09:05;25.50;99.00
21830;DHT22;11077;50.264;6.798;2022-07-23T10:11:55;25.80;98.10
21830;DHT22;11077;50.264;6.798;2022-07-23T10:14:43;25.80;99.00
21830;DHT22;11077;50.264;6.798;2022-07-23T10:17:11;26.20;98.50
21830;DHT22;11077;50.264;6.798;2022-07-23T10:19:40;26.30;97.60
21830;DHT22;11077;50.264;6.798;2022-07-23T10:22:09;26.50;97.10
21830;DHT22;11077;50.264;6.798;2022-07-23T10:24:49;26.60;96.90
21830;DHT22;11077;50.264;6.798;2022-07-23T10:27:47;26.90;97.00
21830;DHT22;11077;50.264;6.798;2022-07-23T10:30:20;27.00;95.80
21830;DHT22;11077;50.264;6.798;2022-07-23T10:32:58;27.20;96.00
21830;DHT22;11077;50.264;6.798;2022-07-23T10:35:37;27.30;95.50
21830;DHT22;11077;50.264;6.798;2022-07-23T10:38:11;27.30;95.30
21830;DHT22;11077;50.264;6.798;2022-07-23T10:40:53;27.20;95.30
21830;DHT22;11077;50.264;6.798;2022-07-23T10:43:21;27.30;95.20
21830;DHT22;11077;50.264;6.798;2022-07-23T10:45:49;27.40;94.60
21830;DHT22;11077;50.264;6.798;2022-07-23T10:48:18;27.20;94.50
21830;DHT22;11077;50.264;6.798;2022-07-23T10:51:09;26.80;94.70
21830;DHT22;11077;50.264;6.798;2022-07-23T10:53:54;26.70;95.10
21830;DHT22;11077;50.264;6.798;2022-07-23T11:00:17;27.10;95.10
21830;DHT22;11077;50.264;6.798;2022-07-23T11:02:48;27.40;94.40
21830;DHT22;11077;50.264;6.798;2022-07-23T11:05:17;27.30;94.00
21830;DHT22;11077;50.264;6.798;2022-07-23T11:08:20;27.40;94.50
21830;DHT22;11077;50.264;6.798;2022-07-23T11:10:50;27.60;93.60
21830;DHT22;11077;50.264;6.798;2022-07-23T11:13:29;27.50;93.70
21830;DHT22;11077;50.264;6.798;2022-07-23T11:16:13;27.90;93.60
21830;DHT22;11077;50.264;6.798;2022-07-23T11:18:56;27.80;91.90
21830;DHT22;11077;50.264;6.798;2022-07-23T11:21:57;27.70;92.30
21830;DHT22;11077;50.264;6.798;2022-07-23T11:24:26;28.10;92.20
21830;DHT22;11077;50.264;6.798;2022-07-23T11:27:01;28.30;92.10
21830;DHT22;11077;50.264;6.798;2022-07-23T11:29:45;28.50;92.50
21830;DHT22;11077;50.264;6.798;2022-07-23T11:32:34;28.70;92.10
21830;DHT22;11077;50.264;6.798;2022-07-23T11:35:19;28.90;91.80
21830;DHT22;11077;50.264;6.798;2022-07-23T11:37:47;28.80;90.90
21830;DHT22;11077;50.264;6.798;2022-07-23T11:40:17;28.70;90.50
21830;DHT22;11077;50.264;6.798;2022-07-23T11:42:55;28.60;91.20
21830;DHT22;11077;50.264;6.798;2022-07-23T11:45:23;28.60;90.60
21830;DHT22;11077;50.264;6.798;2022-07-23T11:47:51;28.60;91.20
21830;DHT22;11077;50.264;6.798;2022-07-23T11:50:18;28.70;91.30
21830;DHT22;11077;50.264;6.798;2022-07-23T11:52:45;28.70;91.00
21830;DHT22;11077;50.264;6.798;2022-07-23T11:55:13;29.00;91.10
21830;DHT22;11077;50.264;6.798;2022-07-23T11:57:44;29.20;91.00
21830;DHT22;11077;50.264;6.798;2022-07-23T12:00:13;29.40;90.10
21830;DHT22;11077;50.264;6.798;2022-07-23T12:02:43;29.50;89.70
21830;DHT22;11077;50.264;6.798;2022-07-23T12:05:12;29.70;89.10
21830;DHT22;11077;50.264;6.798;2022-07-23T12:07:41;29.90;89.40
21830;DHT22;11077;50.264;6.798;2022-07-23T12:10:13;30.20;88.10
21830;DHT22;11077;50.264;6.798;2022-07-23T12:12:45;30.20;85.80
21830;DHT22;11077;50.264;6.798;2022-07-23T12:15:15;30.30;85.60
21830;DHT22;11077;50.264;6.798;2022-07-23T12:17:44;30.20;86.00
21830;DHT22;11077;50.264;6.798;2022-07-23T12:20:14;30.10;86.90
21830;DHT22;11077;50.264;6.798;2022-07-23T12:22:44;30.10;85.80
21830;DHT22;11077;50.264;6.798;2022-07-23T12:25:13;29.80;85.40
21830;DHT22;11077;50.264;6.798;2022-07-23T12:27:43;29.70;85.60
21830;DHT22;11077;50.264;6.798;2022-07-23T12:30:22;29.60;84.90
21830;DHT22;11077;50.264;6.798;2022-07-23T12:32:52;29.20;85.00
21830;DHT22;11077;50.264;6.798;2022-07-23T12:35:21;28.90;86.20
21830;DHT22;11077;50.264;6.798;2022-07-23T12:37:50;28.70;87.70
21830;DHT22;11077;50.264;6.798;2022-07-23T12:40:27;28.60;87.20
21830;DHT22;11077;50.264;6.798;2022-07-23T12:42:58;28.70;87.10
21830;DHT22;11077;50.264;6.798;2022-07-23T12:45:26;28.80;86.80
21830;DHT22;11077;50.264;6.798;2022-07-23T12:48:03;28.80;87.50
21830;DHT22;11077;50.264;6.798;2022-07-23T12:50:53;28.80;87.00
21830;DHT22;11077;50.264;6.798;2022-07-23T12:53:23;28.60;85.80
21830;DHT22;11077;50.264;6.798;2022-07-23T12:55:56;28.40;86.20
21830;DHT22;11077;50.264;6.798;2022-07-23T12:58:27;28.30;86.10
21830;DHT22;11077;50.264;6.798;2022-07-23T13:01:06;28.30;85.30
21830;DHT22;11077;50.264;6.798;2022-07-23T13:03:37;28.20;85.60
21830;DHT22;11077;50.264;6.798;2022-07-23T13:06:07;28.10;85.90
21830;DHT22;11077;50.264;6.798;2022-07-23T13:08:36;27.80;85.70
21830;DHT22;11077;50.264;6.798;2022-07-23T13:11:05;27.60;86.60
21830;DHT22;11077;50.264;6.798;2022-07-23T13:13:35;27.50;87.30
21830;DHT22;11077;50.264;6.798;2022-07-23T13:16:03;27.50;87.20
21830;DHT22;11077;50.264;6.798;2022-07-23T13:18:31;27.30;87.10
21830;DHT22;11077;50.264;6.798;2022-07-23T13:21:06;27.30;88.30
21830;DHT22;11077;50.264;6.798;2022-07-23T13:23:37;27.30;89.80
21830;DHT22;11077;50.264;6.798;2022-07-23T13:26:05;27.30;89.90
21830;DHT22;11077;50.264;6.798;2022-07-23T13:28:34;27.30;90.30
21830;DHT22;11077;50.264;6.798;2022-07-23T13:31:03;27.20;89.40
21830;DHT22;11077;50.264;6.798;2022-07-23T13:33:30;26.90;89.60
21830;DHT22;11077;50.264;6.798;2022-07-23T13:36:05;26.60;89.60
21830;DHT22;11077;50.264;6.798;2022-07-23T13:38:33;26.60;90.10
21830;DHT22;11077;50.264;6.798;2022-07-23T13:41:01;26.60;89.20
21830;DHT22;11077;50.264;6.798;2022-07-23T13:43:30;26.70;89.70
21830;DHT22;11077;50.264;6.798;2022-07-23T13:45:59;26.70;90.20
21830;DHT22;11077;50.264;6.798;2022-07-23T13:48:27;26.70;89.80
21830;DHT22;11077;50.264;6.798;2022-07-23T13:50:58;26.80;89.60
21830;DHT22;11077;50.264;6.798;2022-07-23T13:53:27;26.80;89.10
21830;DHT22;11077;50.264;6.798;2022-07-23T13:55:55;26.80;89.40
21830;DHT22;11077;50.264;6.798;2022-07-23T13:58:24;26.80;89.60
21830;DHT22;11077;50.264;6.798;2022-07-23T14:00:53;26.70;90.10
21830;DHT22;11077;50.264;6.798;2022-07-23T14:03:24;26.70;90.50
21830;DHT22;11077;50.264;6.798;2022-07-23T14:05:55;26.60;90.20
21830;DHT22;11077;50.264;6.798;2022-07-23T14:08:26;26.50;90.10
21830;DHT22;11077;50.264;6.798;2022-07-23T14:11:01;26.40;90.30
21830;DHT22;11077;50.264;6.798;2022-07-23T14:13:28;26.40;90.40
21830;DHT22;11077;50.264;6.798;2022-07-23T14:15:56;26.40;90.60
21830;DHT22;11077;50.264;6.798;2022-07-23T14:18:25;26.50;90.30
21830;DHT22;11077;50.264;6.798;2022-07-23T14:20:53;26.50;90.10
21830;DHT22;11077;50.264;6.798;2022-07-23T14:23:21;26.50;90.20
21830;DHT22;11077;50.264;6.798;2022-07-23T14:25:52;26.50;90.40
21830;DHT22;11077;50.264;6.798;2022-07-23T14:28:20;26.50;91.80
21830;DHT22;11077;50.264;6.798;2022-07-23T14:30:48;26.60;91.30
21830;DHT22;11077;50.264;6.798;2022-07-23T14:33:15;26.70;90.90
21830;DHT22;11077;50.264;6.798;2022-07-23T14:35:45;26.70;90.90
21830;DHT22;11077;50.264;6.798;2022-07-23T14:38:14;26.70;90.70
21830;DHT22;11077;50.264;6.798;2022-07-23T14:40:42;26.70;90.20
21830;DHT22;11077;50.264;6.798;2022-07-23T14:43:09;26.70;90.50
21830;DHT22;11077;50.264;6.798;2022-07-23T14:45:36;26.60;90.30
21830;DHT22;11077;50.264;6.798;2022-07-23T14:48:04;26.70;90.30
21830;DHT22;11077;50.264;6.798;2022-07-23T14:50:32;26.70;90.60
21830;DHT22;11077;50.264;6.798;2022-07-23T14:53:02;26.80;90.60
21830;DHT22;11077;50.264;6.798;2022-07-23T14:55:34;26.70;90.50
21830;DHT22;11077;50.264;6.798;2022-07-23T14:58:05;26.80;90.40
21830;DHT22;11077;50.264;6.798;2022-07-23T15:00:33;26.70;90.20
21830;DHT22;11077;50.264;6.798;2022-07-23T15:03:01;26.60;90.10
21830;DHT22;11077;50.264;6.798;2022-07-23T15:05:29;26.50;90.20
21830;DHT22;11077;50.264;6.798;2022-07-23T15:08:02;26.40;90.40
21830;DHT22;11077;50.264;6.798;2022-07-23T15:10:30;26.40;90.40
21830;DHT22;11077;50.264;6.798;2022-07-23T15:12:58;26.30;90.50
21830;DHT22;11077;50.264;6.798;2022-07-23T15:15:25;26.20;90.60
21830;DHT22;11077;50.264;6.798;2022-07-23T15:17:53;26.20;90.50
21830;DHT22;11077;50.264;6.798;2022-07-23T15:20:20;26.10;90.70
21830;DHT22;11077;50.264;6.798;2022-07-23T15:22:49;26.10;90.80
21830;DHT22;11077;50.264;6.798;2022-07-23T15:25:19;26.00;90.90
21830;DHT22;11077;50.264;6.798;2022-07-23T15:27:47;25.80;90.90
21830;DHT22;11077;50.264;6.798;2022-07-23T15:30:15;25.80;91.10
21830;DHT22;11077;50.264;6.798;2022-07-23T15:32:42;25.70;91.10
21830;DHT22;11077;50.264;6.798;2022-07-23T15:35:10;25.70;91.60
21830;DHT22;11077;50.264;6.798;2022-07-23T15:37:38;25.60;91.70
21830;DHT22;11077;50.264;6.798;2022-07-23T15:40:11;25.60;91.50
21830;DHT22;11077;50.264;6.798;2022-07-23T15:42:51;25.70;91.90
21830;DHT22;11077;50.264;6.798;2022-07-23T15:45:19;25.70;91.70
21830;DHT22;11077;50.264;6.798;2022-07-23T15:47:47;25.80;91.60
21830;DHT22;11077;50.264;6.798;2022-07-23T15:50:15;25.80;91.10
21830;DHT22;11077;50.264;6.798;2022-07-23T15:52:44;25.90;91.90
21830;DHT22;11077;50.264;6.798;2022-07-23T15:55:13;25.90;91.20
21830;DHT22;11077;50.264;6.798;2022-07-23T15:57:40;26.00;91.20